Time;durP1;ratioP1;P1;durP2;ratioP2;P2;SDS_P1;SDS_P2;PMS_P1;PMS_P2;Temp;Humidity;BMP_temperature;BMP_pressure;BME280_temperature;BME280_humidity;BME280_pressure;Samples;Min_cycle;Max_cycle;Signal;HPM_P1;HPM_P2
2022/04/11 00:02:12;;;;;;;4.53;2.10;;;4.80;94.80;;;;;;601596;239;26629;-63
2022/04/11 00:04:40;;;;;;;1.80;1.70;;;4.70;94.50;;;;;;601806;237;26808;-63
2022/04/11 00:07:07;;;;;;;2.58;1.62;;;4.80;94.60;;;;;;601798;239;26614;-63
2022/04/11 00:09:34;;;;;;;4.50;1.70;;;4.80;94.60;;;;;;601522;237;27155;-63
2022/04/11 00:12:01;;;;;;;2.72;1.70;;;4.80;94.70;;;;;;601471;237;26629;-63
2022/04/11 00:14:29;;;;;;;2.28;1.77;;;4.80;94.90;;;;;;601511;238;26631;-63
2022/04/11 00:16:56;;;;;;;2.37;1.73;;;4.70;94.60;;;;;;601518;239;26650;-63
2022/04/11 00:19:23;;;;;;;2.33;2.10;;;4.70;94.90;;;;;;601536;239;26975;-63
2022/04/11 00:21:50;;;;;;;3.75;2.25;;;4.70;94.80;;;;;;601559;239;26643;-63
2022/04/11 00:24:17;;;;;;;2.28;1.45;;;4.70;94.80;;;;;;601478;239;26652;-63
2022/04/11 00:26:45;;;;;;;2.37;2.03;;;4.60;95.00;;;;;;601551;239;26622;-64
2022/04/11 00:29:13;;;;;;;3.72;2.20;;;4.50;95.10;;;;;;601567;239;26634;-63
2022/04/11 00:31:40;;;;;;;2.33;1.80;;;4.50;95.10;;;;;;601529;237;26861;-63
2022/04/11 00:34:08;;;;;;;3.05;1.80;;;4.50;95.40;;;;;;601473;239;26622;-63
2022/04/11 00:36:36;;;;;;;3.65;1.85;;;4.40;95.50;;;;;;601570;239;26842;-63
2022/04/11 00:39:03;;;;;;;4.37;2.37;;;4.40;95.60;;;;;;601486;237;27183;-63
2022/04/11 00:41:31;;;;;;;2.83;1.92;;;4.30;95.90;;;;;;601497;238;26631;-63
2022/04/11 00:43:59;;;;;;;2.60;1.55;;;4.30;96.00;;;;;;602477;237;26631;-63
2022/04/11 00:46:26;;;;;;;2.85;1.70;;;4.20;96.00;;;;;;602742;238;26642;-63
2022/04/11 00:48:54;;;;;;;4.12;1.62;;;4.20;96.00;;;;;;602520;239;26595;-63
2022/04/11 00:51:21;;;;;;;2.33;1.87;;;4.20;96.20;;;;;;602298;238;26894;-63
2022/04/11 00:53:48;;;;;;;2.40;1.75;;;4.20;96.30;;;;;;602096;237;26592;-63
2022/04/11 00:56:16;;;;;;;2.47;2.28;;;4.10;96.50;;;;;;602022;237;26889;-63
2022/04/11 00:58:43;;;;;;;2.83;2.20;;;4.10;96.70;;;;;;602077;237;26597;-63
2022/04/11 01:01:10;;;;;;;2.53;1.75;;;4.10;96.80;;;;;;602024;237;26601;-63
2022/04/11 01:03:38;;;;;;;5.62;2.35;;;4.00;97.10;;;;;;601787;237;26599;-63
2022/04/11 01:06:07;;;;;;;2.60;2.08;;;4.00;97.30;;;;;;601732;238;26602;-63
2022/04/11 01:08:34;;;;;;;1.55;1.42;;;4.00;97.10;;;;;;601796;239;26887;-63
2022/04/11 01:11:01;;;;;;;3.30;1.80;;;4.00;97.10;;;;;;601856;239;26581;-63
2022/04/11 01:13:28;;;;;;;2.00;1.67;;;3.90;97.10;;;;;;601781;237;26844;-63
2022/04/11 01:15:56;;;;;;;2.65;1.87;;;3.90;97.30;;;;;;601776;237;26606;-63
2022/04/11 01:18:23;;;;;;;2.80;2.03;;;3.80;97.40;;;;;;601812;237;26593;-64
2022/04/11 01:20:51;;;;;;;2.20;2.00;;;3.70;97.60;;;;;;601521;237;26645;-63
2022/04/11 01:23:18;;;;;;;2.17;1.90;;;3.70;97.60;;;;;;601517;237;26866;-64
2022/04/11 01:25:49;;;;;;;2.67;2.35;;;3.70;97.70;;;;;;601505;239;26649;-63
2022/04/11 01:28:17;;;;;;;2.37;1.83;;;3.70;97.70;;;;;;601562;239;26625;-63
2022/04/11 01:30:44;;;;;;;2.15;2.03;;;3.70;97.90;;;;;;601489;237;26877;-63
2022/04/11 01:33:14;;;;;;;6.22;2.03;;;3.60;97.80;;;;;;601495;237;26669;-63
2022/04/11 01:35:42;;;;;;;4.15;2.28;;;3.60;98.10;;;;;;601413;239;26699;-63
2022/04/11 01:38:09;;;;;;;2.50;2.03;;;3.50;98.20;;;;;;601524;239;26639;-63
2022/04/11 01:40:37;;;;;;;2.55;2.00;;;3.50;98.20;;;;;;601572;237;26622;-63
2022/04/11 01:43:04;;;;;;;3.28;1.98;;;3.50;98.20;;;;;;601529;237;26648;-63
2022/04/11 01:45:32;;;;;;;3.08;2.33;;;3.50;98.30;;;;;;601547;238;26841;-64
2022/04/11 01:47:59;;;;;;;2.17;1.98;;;3.40;98.40;;;;;;601548;239;26632;-63
2022/04/11 01:50:27;;;;;;;3.17;2.08;;;3.30;98.60;;;;;;601535;239;26635;-63
2022/04/11 01:52:55;;;;;;;2.53;1.87;;;3.40;98.60;;;;;;601558;238;26594;-63
2022/04/11 01:55:22;;;;;;;1.73;1.55;;;3.30;98.50;;;;;;602405;237;26624;-64
2022/04/11 01:57:49;;;;;;;3.12;2.00;;;3.30;98.60;;;;;;602821;238;26889;-63
2022/04/11 02:00:17;;;;;;;2.90;2.17;;;3.30;98.60;;;;;;602479;239;26580;-64
2022/04/11 02:02:43;;;;;;;3.22;2.17;;;3.30;98.60;;;;;;602282;238;27001;-63
2022/04/11 02:05:11;;;;;;;3.35;2.15;;;3.20;98.80;;;;;;602094;238;26581;-63
2022/04/11 02:07:39;;;;;;;5.12;2.22;;;3.20;98.90;;;;;;602074;237;26621;-63
2022/04/11 02:10:07;;;;;;;3.47;2.40;;;3.20;98.90;;;;;;602107;239;26581;-63
2022/04/11 02:12:35;;;;;;;2.67;1.87;;;3.10;99.00;;;;;;602081;237;26719;-63
2022/04/11 02:15:06;;;;;;;2.60;1.92;;;3.10;99.10;;;;;;601535;236;26570;-63
2022/04/11 02:17:33;;;;;;;2.85;2.17;;;3.10;98.80;;;;;;611656;235;26876;-63
2022/04/11 02:20:00;;;;;;;1.80;1.70;;;3.20;98.80;;;;;;612728;235;26593;-63
2022/04/11 02:22:27;;;;;;;2.87;2.33;;;3.20;99.10;;;;;;612741;235;26830;-63
2022/04/11 02:24:55;;;;;;;2.62;2.08;;;3.30;98.50;;;;;;612662;235;26580;-63
2022/04/11 02:27:23;;;;;;;2.17;2.00;;;3.20;98.50;;;;;;612752;235;26644;-63
2022/04/11 02:29:50;;;;;;;4.07;2.30;;;3.20;98.50;;;;;;612721;235;26596;-63
2022/04/11 02:32:18;;;;;;;2.28;2.05;;;3.20;98.50;;;;;;612410;234;26653;-64
2022/04/11 02:34:44;;;;;;;3.45;1.98;;;3.20;98.50;;;;;;612371;234;26952;-63
2022/04/11 02:37:12;;;;;;;2.75;1.90;;;3.10;98.60;;;;;;612435;235;26652;-63
2022/04/11 02:39:39;;;;;;;2.70;1.90;;;3.10;98.60;;;;;;612445;234;27163;-63
2022/04/11 02:42:07;;;;;;;2.33;1.90;;;3.10;98.50;;;;;;612397;234;26606;-63
2022/04/11 02:44:35;;;;;;;2.33;2.00;;;3.10;98.70;;;;;;612359;235;26629;-63
2022/04/11 02:47:03;;;;;;;4.72;2.40;;;3.10;98.70;;;;;;612382;235;26658;-63
2022/04/11 02:49:30;;;;;;;2.00;1.40;;;3.10;98.70;;;;;;612411;234;26866;-63
2022/04/11 02:51:57;;;;;;;2.12;1.92;;;3.10;98.80;;;;;;612412;234;26638;-64
2022/04/11 02:54:24;;;;;;;3.67;2.05;;;3.10;98.80;;;;;;612430;235;26823;-63
2022/04/11 02:56:53;;;;;;;6.18;1.90;;;3.00;99.00;;;;;;612392;235;26632;-63
2022/04/11 02:59:20;;;;;;;3.10;1.70;;;3.00;99.10;;;;;;612390;235;26853;-63
2022/04/11 03:01:47;;;;;;;2.42;2.00;;;2.90;99.10;;;;;;612404;235;26624;-63
2022/04/11 03:04:15;;;;;;;3.58;2.08;;;3.00;99.10;;;;;;612392;234;26624;-64
2022/04/11 03:06:42;;;;;;;2.22;2.03;;;2.90;99.20;;;;;;613131;233;26651;-63
2022/04/11 03:09:10;;;;;;;2.67;1.80;;;2.90;99.20;;;;;;613798;234;26644;-63
2022/04/11 03:11:38;;;;;;;2.78;1.83;;;2.90;99.30;;;;;;613384;234;26834;-63
2022/04/11 03:14:05;;;;;;;2.40;1.87;;;2.90;99.30;;;;;;613263;234;26574;-63
2022/04/11 03:16:34;;;;;;;5.85;1.95;;;2.80;99.30;;;;;;613054;234;26665;-63
2022/04/11 03:18:59;;;;;;;2.20;1.75;;;2.80;99.50;;;;;;613296;235;26615;-63
2022/04/11 03:21:27;;;;;;;3.70;1.75;;;2.90;99.50;;;;;;613382;234;26616;-63
2022/04/11 03:23:55;;;;;;;3.25;1.77;;;2.80;99.50;;;;;;613305;234;26622;-63
2022/04/11 03:26:22;;;;;;;2.95;1.98;;;2.80;99.60;;;;;;612929;234;26844;-63
2022/04/11 03:28:50;;;;;;;3.05;2.08;;;2.80;99.70;;;;;;612718;235;26588;-63
2022/04/11 03:31:17;;;;;;;2.53;1.70;;;2.80;99.70;;;;;;612717;235;26852;-63
2022/04/11 03:33:45;;;;;;;2.42;1.90;;;2.70;99.90;;;;;;612681;235;26560;-63
2022/04/11 03:36:13;;;;;;;1.85;1.75;;;2.70;99.90;;;;;;612687;234;26623;-63
2022/04/11 03:38:41;;;;;;;2.42;1.90;;;2.80;99.90;;;;;;612680;235;26603;-63
2022/04/11 03:41:08;;;;;;;1.85;1.75;;;2.70;99.90;;;;;;612685;234;26844;-63
2022/04/11 03:43:35;;;;;;;1.73;1.60;;;2.70;99.90;;;;;;612441;235;26606;-64
2022/04/11 03:46:02;;;;;;;2.12;1.83;;;2.80;99.90;;;;;;612374;235;27182;-63
2022/04/11 03:48:30;;;;;;;1.60;1.50;;;2.70;99.90;;;;;;612457;235;26669;-63
2022/04/11 03:50:58;;;;;;;1.80;1.70;;;2.70;99.90;;;;;;612390;235;26667;-63
2022/04/11 03:53:26;;;;;;;4.30;1.83;;;2.70;99.90;;;;;;612399;234;26627;-64
2022/04/11 03:55:53;;;;;;;1.80;1.70;;;2.70;99.90;;;;;;612321;235;26895;-63
2022/04/11 03:58:20;;;;;;;2.05;1.55;;;2.70;99.90;;;;;;612420;235;26639;-64
2022/04/11 04:00:49;;;;;;;2.37;1.87;;;2.60;99.90;;;;;;612386;235;26608;-63
2022/04/11 04:03:17;;;;;;;3.37;1.85;;;2.60;99.90;;;;;;612407;235;26607;-63
2022/04/11 04:05:44;;;;;;;3.28;1.52;;;2.60;99.90;;;;;;612401;235;26628;-63
2022/04/11 04:08:11;;;;;;;2.12;1.60;;;2.60;99.90;;;;;;612361;235;26631;-64
2022/04/11 04:10:40;;;;;;;3.03;1.55;;;2.60;99.90;;;;;;612436;234;26680;-64
2022/04/11 04:13:08;;;;;;;1.85;1.67;;;2.60;99.90;;;;;;612435;234;26640;-63
2022/04/11 04:15:37;;;;;;;1.58;1.40;;;2.60;99.90;;;;;;612412;235;26636;-63
2022/04/11 04:18:04;;;;;;;1.65;1.55;;;2.60;99.90;;;;;;612969;232;26677;-63
2022/04/11 04:20:32;;;;;;;2.58;1.80;;;2.60;99.90;;;;;;613814;234;26650;-63
2022/04/11 04:22:59;;;;;;;1.95;1.60;;;2.60;99.90;;;;;;613445;234;26544;-63
2022/04/11 04:25:27;;;;;;;1.55;1.45;;;2.70;99.90;;;;;;613211;234;26586;-63
2022/04/11 04:27:54;;;;;;;2.40;1.50;;;2.70;99.90;;;;;;613092;234;26582;-63
2022/04/11 04:30:21;;;;;;;3.58;1.73;;;2.60;99.90;;;;;;613022;235;26634;-63
2022/04/11 04:32:48;;;;;;;2.15;1.60;;;2.60;99.90;;;;;;613002;234;26874;-63
2022/04/11 04:35:16;;;;;;;2.12;1.40;;;2.70;99.90;;;;;;612939;235;26635;-63
2022/04/11 04:37:43;;;;;;;1.73;1.60;;;2.70;99.90;;;;;;612678;234;26766;-63
2022/04/11 04:40:11;;;;;;;1.58;1.48;;;2.60;99.90;;;;;;612738;235;26589;-63
2022/04/11 04:42:38;;;;;;;2.28;1.67;;;2.60;99.90;;;;;;612787;235;26593;-67
2022/04/11 04:45:06;;;;;;;1.75;1.65;;;2.70;99.90;;;;;;612687;234;26576;-68
2022/04/11 04:47:34;;;;;;;1.67;1.48;;;2.60;99.90;;;;;;612670;234;26621;-68
2022/04/11 04:50:02;;;;;;;1.75;1.60;;;2.60;99.90;;;;;;612694;235;26601;-67
2022/04/11 04:52:29;;;;;;;2.00;1.52;;;2.60;99.90;;;;;;612681;230;26892;-68
2022/04/11 04:54:56;;;;;;;1.60;1.50;;;2.60;99.90;;;;;;612489;235;26590;-69
2022/04/11 04:57:24;;;;;;;1.70;1.60;;;2.60;99.90;;;;;;612393;235;26928;-68
2022/04/11 04:59:51;;;;;;;4.12;1.58;;;2.70;99.90;;;;;;612430;235;26630;-68
2022/04/11 05:02:19;;;;;;;1.35;1.33;;;2.70;99.90;;;;;;612393;235;26648;-68
2022/04/11 05:04:46;;;;;;;2.12;1.42;;;2.80;99.90;;;;;;612337;235;26625;-67
2022/04/11 05:07:14;;;;;;;1.55;1.45;;;2.80;99.90;;;;;;612403;235;26658;-68
2022/04/11 05:09:41;;;;;;;2.08;1.87;;;2.80;99.90;;;;;;612435;235;26862;-70
2022/04/11 05:12:08;;;;;;;1.55;1.48;;;2.80;99.90;;;;;;612379;235;26642;-69
2022/04/11 05:14:35;;;;;;;2.87;1.62;;;2.90;99.90;;;;;;612354;235;26615;-68
2022/04/11 05:17:03;;;;;;;2.12;1.67;;;3.00;99.90;;;;;;612420;235;26662;-68
2022/04/11 05:19:30;;;;;;;2.47;1.50;;;3.00;99.90;;;;;;612395;235;26613;-67
2022/04/11 05:21:57;;;;;;;2.65;1.45;;;3.00;99.90;;;;;;612394;234;26658;-69
2022/04/11 05:24:24;;;;;;;1.83;1.65;;;3.10;99.90;;;;;;612418;235;26639;-68
2022/04/11 05:26:51;;;;;;;2.12;1.40;;;3.10;99.90;;;;;;612454;235;26869;-69
2022/04/11 05:29:19;;;;;;;1.55;1.45;;;3.20;99.90;;;;;;612743;232;26627;-68
2022/04/11 05:31:46;;;;;;;1.37;1.27;;;3.30;99.90;;;;;;613934;234;27126;-68
2022/04/11 05:34:14;;;;;;;1.50;1.40;;;3.40;99.90;;;;;;613421;234;26584;-69
2022/04/11 05:36:42;;;;;;;1.55;1.42;;;3.40;99.90;;;;;;613263;234;26595;-68
2022/04/11 05:39:10;;;;;;;2.08;1.62;;;3.50;99.90;;;;;;613130;234;26921;-69
2022/04/11 05:41:38;;;;;;;1.42;1.33;;;3.50;99.90;;;;;;612988;235;26916;-68
2022/04/11 05:44:05;;;;;;;1.20;1.20;;;3.50;99.90;;;;;;612987;234;26847;-68
2022/04/11 05:46:33;;;;;;;1.30;1.25;;;3.70;99.70;;;;;;612996;235;26658;-67
2022/04/11 05:49:01;;;;;;;1.50;1.40;;;3.70;99.50;;;;;;612716;231;26629;-67
2022/04/11 05:51:29;;;;;;;1.60;1.52;;;3.80;99.50;;;;;;612674;235;26596;-67
2022/04/11 05:53:56;;;;;;;1.20;1.20;;;3.80;99.20;;;;;;612710;235;26888;-67
2022/04/11 05:56:23;;;;;;;1.60;1.50;;;3.90;99.00;;;;;;612687;235;26583;-67
2022/04/11 05:58:50;;;;;;;1.42;1.27;;;3.90;98.80;;;;;;612723;235;26840;-67
2022/04/11 06:01:18;;;;;;;1.60;1.50;;;4.10;98.60;;;;;;612721;235;26564;-68
2022/04/11 06:03:46;;;;;;;1.40;1.30;;;4.20;98.20;;;;;;612715;235;26576;-67
2022/04/11 06:06:15;;;;;;;1.87;1.27;;;4.40;98.20;;;;;;612560;235;26617;-67
2022/04/11 06:08:41;;;;;;;1.75;1.30;;;4.30;98.10;;;;;;612350;235;26854;-68
2022/04/11 06:11:09;;;;;;;2.97;1.30;;;4.50;97.40;;;;;;606926;235;26636;-65
2022/04/11 06:13:36;;;;;;;8.45;2.00;;;4.60;97.00;;;;;;603907;235;27257;-65
2022/04/11 06:16:04;;;;;;;3.55;1.48;;;4.60;96.50;;;;;;603786;235;26669;-68
2022/04/11 06:18:30;;;;;;;13.32;1.77;;;4.70;96.00;;;;;;604883;236;26612;-68
2022/04/11 06:20:58;;;;;;;5.97;1.65;;;4.80;95.90;;;;;;604837;236;26846;-68
2022/04/11 06:23:26;;;;;;;2.85;1.80;;;4.90;95.60;;;;;;605528;235;26617;-68
2022/04/11 06:25:53;;;;;;;6.28;1.55;;;4.90;95.20;;;;;;606677;233;26620;-69
2022/04/11 06:28:20;;;;;;;4.72;1.73;;;5.00;94.50;;;;;;603928;236;26850;-69
2022/04/11 06:30:47;;;;;;;4.62;1.70;;;5.20;94.30;;;;;;607564;235;26823;-69
2022/04/11 06:33:16;;;;;;;2.37;1.87;;;5.50;92.50;;;;;;603601;236;26641;-68
2022/04/11 06:35:43;;;;;;;1.58;1.33;;;5.40;92.50;;;;;;603935;236;27045;-68
2022/04/11 06:38:10;;;;;;;4.55;1.52;;;5.50;92.30;;;;;;602848;235;26599;-67
2022/04/11 06:40:37;;;;;;;3.10;1.20;;;5.40;92.00;;;;;;605336;235;26842;-68
2022/04/11 06:43:05;;;;;;;4.60;1.50;;;5.50;90.70;;;;;;607703;234;26667;-68
2022/04/11 06:45:33;;;;;;;4.82;1.60;;;5.70;90.70;;;;;;608691;233;26888;-68
2022/04/11 06:48:00;;;;;;;2.22;1.52;;;5.70;90.70;;;;;;604631;235;26849;-69
2022/04/11 06:50:27;;;;;;;3.03;1.77;;;5.80;90.30;;;;;;604965;235;26631;-69
2022/04/11 06:52:55;;;;;;;4.53;1.40;;;5.90;90.20;;;;;;605598;235;26589;-68
2022/04/11 06:55:23;;;;;;;4.57;1.67;;;5.90;89.10;;;;;;605805;234;26580;-69
2022/04/11 06:57:51;;;;;;;2.65;1.92;;;6.10;88.00;;;;;;603621;232;26643;-67
2022/04/11 07:00:18;;;;;;;4.28;2.08;;;6.10;88.00;;;;;;603571;238;26585;-68
2022/04/11 07:02:45;;;;;;;1.40;1.30;;;6.20;88.20;;;;;;604813;236;26579;-68
2022/04/11 07:05:12;;;;;;;4.87;1.80;;;6.40;88.10;;;;;;606543;234;26855;-67
2022/04/11 07:07:41;;;;;;;3.15;1.40;;;6.40;87.20;;;;;;604724;234;26604;-67
2022/04/11 07:10:09;;;;;;;2.25;1.65;;;6.40;85.40;;;;;;604271;236;27326;-69
2022/04/11 07:12:38;;;;;;;1.50;1.40;;;6.40;84.20;;;;;;604704;236;26610;-69
2022/04/11 07:15:06;;;;;;;2.22;1.42;;;6.40;84.20;;;;;;603788;236;27103;-68
2022/04/11 07:17:33;;;;;;;2.55;1.62;;;6.40;84.50;;;;;;606404;233;26688;-67
2022/04/11 07:20:01;;;;;;;1.65;1.20;;;6.60;84.50;;;;;;604333;236;26589;-68
2022/04/11 07:22:28;;;;;;;4.87;1.67;;;6.60;84.20;;;;;;603560;237;26845;-68
2022/04/11 07:24:55;;;;;;;2.53;1.40;;;6.70;83.70;;;;;;603686;235;26621;-68
2022/04/11 07:27:22;;;;;;;1.62;1.52;;;6.80;82.40;;;;;;603086;238;26864;-68
2022/04/11 07:29:50;;;;;;;1.70;1.35;;;6.90;81.20;;;;;;606061;235;26611;-67
2022/04/11 07:32:17;;;;;;;2.37;1.40;;;6.80;81.00;;;;;;608831;235;26606;-68
2022/04/11 07:34:44;;;;;;;2.67;1.35;;;6.80;81.20;;;;;;609228;235;26872;-67
2022/04/11 07:37:12;;;;;;;2.58;1.27;;;7.00;80.20;;;;;;602232;236;26673;-67
2022/04/11 07:39:39;;;;;;;2.95;1.67;;;6.90;79.50;;;;;;604593;237;26974;-67
2022/04/11 07:42:07;;;;;;;1.40;1.30;;;6.90;79.70;;;;;;602741;236;26622;-68
2022/04/11 07:44:35;;;;;;;3.05;1.48;;;7.10;79.30;;;;;;607384;236;26604;-67
2022/04/11 07:47:02;;;;;;;2.70;1.30;;;7.00;79.20;;;;;;602322;236;26885;-68
2022/04/11 07:49:29;;;;;;;3.00;1.50;;;7.10;80.30;;;;;;604384;235;26626;-67
2022/04/11 07:51:56;;;;;;;1.37;1.30;;;7.10;78.80;;;;;;607485;235;26954;-68
2022/04/11 07:54:23;;;;;;;2.20;1.20;;;7.20;78.90;;;;;;609192;234;26586;-67
2022/04/11 07:56:51;;;;;;;4.30;1.77;;;7.20;78.30;;;;;;607054;234;26646;-67
2022/04/11 07:59:19;;;;;;;1.83;1.33;;;7.30;78.80;;;;;;605074;237;26816;-68
2022/04/11 08:01:46;;;;;;;1.65;1.30;;;7.40;78.60;;;;;;604529;236;26790;-69
2022/04/11 08:04:14;;;;;;;1.70;1.30;;;7.60;76.80;;;;;;608160;236;26596;-68
2022/04/11 08:06:42;;;;;;;2.50;1.50;;;7.60;76.20;;;;;;604669;235;26638;-68
2022/04/11 08:09:10;;;;;;;2.03;1.23;;;7.50;76.10;;;;;;604232;235;26862;-67
2022/04/11 08:11:37;;;;;;;2.58;1.42;;;7.50;74.80;;;;;;604648;235;26583;-68
2022/04/11 08:14:05;;;;;;;2.15;1.55;;;7.60;75.60;;;;;;603935;234;26800;-68
2022/04/11 08:16:32;;;;;;;3.53;1.60;;;7.70;74.70;;;;;;602819;236;26611;-68
2022/04/11 08:19:00;;;;;;;1.00;1.00;;;7.80;74.30;;;;;;602098;238;26578;-68
2022/04/11 08:21:28;;;;;;;1.23;1.17;;;7.80;74.30;;;;;;610462;235;26596;-67
2022/04/11 08:23:56;;;;;;;2.08;1.35;;;7.80;74.20;;;;;;611281;235;26580;-67
2022/04/11 08:26:23;;;;;;;1.73;1.48;;;8.00;73.20;;;;;;605389;235;26668;-68
2022/04/11 08:28:50;;;;;;;2.85;1.20;;;8.00;73.70;;;;;;603760;236;26830;-67
2022/04/11 08:31:17;;;;;;;2.67;1.25;;;8.10;72.90;;;;;;601934;235;26648;-67
2022/04/11 08:33:45;;;;;;;1.55;1.45;;;8.10;72.60;;;;;;605995;232;26838;-67
2022/04/11 08:36:12;;;;;;;2.53;1.40;;;8.20;70.30;;;;;;606704;235;26633;-67
2022/04/11 08:38:39;;;;;;;2.37;1.00;;;8.10;70.60;;;;;;603818;237;26582;-67
2022/04/11 08:41:07;;;;;;;1.60;1.17;;;8.40;69.60;;;;;;602048;238;26645;-68
2022/04/11 08:43:34;;;;;;;5.75;1.27;;;8.40;69.60;;;;;;608776;236;26630;-67
2022/04/11 08:46:01;;;;;;;1.52;1.15;;;8.40;68.80;;;;;;605753;235;26596;-69
2022/04/11 08:48:28;;;;;;;1.12;1.12;;;8.50;69.80;;;;;;601887;238;26859;-68
2022/04/11 08:50:56;;;;;;;1.37;1.05;;;8.50;67.20;;;;;;605517;236;26653;-68
2022/04/11 08:53:23;;;;;;;1.35;1.20;;;8.50;66.80;;;;;;611656;234;26839;-68
2022/04/11 08:55:51;;;;;;;2.40;1.27;;;8.60;66.10;;;;;;605551;235;26669;-68
2022/04/11 08:58:19;;;;;;;1.23;1.12;;;8.70;67.00;;;;;;603689;236;26581;-68
2022/04/11 09:00:46;;;;;;;1.20;1.20;;;8.70;66.90;;;;;;603919;236;26723;-69
2022/04/11 09:03:14;;;;;;;4.50;1.30;;;8.70;65.10;;;;;;608623;236;26642;-68
2022/04/11 09:05:42;;;;;;;3.30;1.08;;;8.80;62.70;;;;;;603919;234;26602;-68
2022/04/11 09:08:09;;;;;;;1.40;1.10;;;8.80;62.70;;;;;;604028;237;26631;-68
2022/04/11 09:10:37;;;;;;;2.15;0.90;;;8.80;62.80;;;;;;604600;237;26582;-69
2022/04/11 09:13:04;;;;;;;1.92;1.17;;;8.90;62.50;;;;;;604021;235;26846;-69
2022/04/11 09:15:45;;;;;;;7.78;1.52;;;8.90;60.80;;;;;;604689;236;26560;-67
2022/04/11 09:18:12;;;;;;;16.15;1.83;;;8.90;60.80;;;;;;607277;234;26603;-67
2022/04/11 09:20:41;;;;;;;4.35;1.20;;;8.90;61.80;;;;;;609080;236;26581;-67
2022/04/11 09:23:19;;;;;;;2.65;1.10;;;9.00;61.50;;;;;;603647;235;26590;-67
2022/04/11 09:25:46;;;;;;;1.27;1.00;;;9.10;62.10;;;;;;609650;235;27452;-67
2022/04/11 09:28:13;;;;;;;1.45;0.90;;;9.20;61.60;;;;;;603117;237;26586;-67
2022/04/11 09:30:43;;;;;;;1.92;0.88;;;9.30;62.00;;;;;;610059;235;26580;-67
2022/04/11 09:33:09;;;;;;;2.33;1.08;;;9.40;59.40;;;;;;609260;230;26648;-67
2022/04/11 09:35:38;;;;;;;6.50;1.37;;;9.40;59.40;;;;;;602694;237;26606;-67
2022/04/11 09:38:06;;;;;;;3.87;1.40;;;9.40;59.30;;;;;;603285;236;26812;-67
2022/04/11 09:40:37;;;;;;;1.08;0.98;;;9.60;58.80;;;;;;601384;238;26583;-67
2022/04/11 09:43:04;;;;;;;1.00;0.90;;;9.50;58.80;;;;;;608401;236;26630;-66
2022/04/11 09:45:32;;;;;;;2.47;1.10;;;9.50;58.40;;;;;;601479;237;26601;-66
2022/04/11 09:48:00;;;;;;;2.53;1.33;;;9.70;57.60;;;;;;602922;237;26645;-66
2022/04/11 09:50:30;;;;;;;1.80;1.10;;;9.60;57.50;;;;;;602490;237;26624;-66
2022/04/11 09:53:05;;;;;;;1.45;1.25;;;9.80;56.80;;;;;;601676;238;26636;-66
2022/04/11 09:55:33;;;;;;;1.15;1.02;;;9.70;56.00;;;;;;603933;233;26586;-66
2022/04/11 09:58:01;;;;;;;1.52;0.90;;;9.90;56.40;;;;;;602903;237;26634;-66
2022/04/11 10:00:29;;;;;;;1.10;1.00;;;9.80;56.50;;;;;;602488;237;26630;-67
2022/04/11 10:02:57;;;;;;;1.10;0.95;;;9.80;56.50;;;;;;604056;237;26853;-66
2022/04/11 10:05:24;;;;;;;1.70;0.90;;;9.80;56.40;;;;;;601200;239;26643;-67
2022/04/11 10:07:54;;;;;;;2.00;1.02;;;9.90;55.40;;;;;;601490;237;26641;-67
2022/04/11 10:10:22;;;;;;;1.23;1.12;;;9.90;55.00;;;;;;603283;238;26588;-66
2022/04/11 10:12:51;;;;;;;1.58;1.00;;;9.90;55.00;;;;;;604555;237;26728;-66
2022/04/11 10:15:17;;;;;;;0.90;0.90;;;10.20;54.70;;;;;;610049;236;26573;-67
2022/04/11 10:17:45;;;;;;;44.90;7.97;;;10.40;53.90;;;;;;605684;233;26602;-67
2022/04/11 10:20:13;;;;;;;1349.00;117.10;;;10.40;53.50;;;;;;605675;235;26626;-67
2022/04/11 10:22:41;;;;;;;1999.90;457.58;;;10.50;53.80;;;;;;608838;235;26619;-67
2022/04/11 10:25:09;;;;;;;1999.90;482.33;;;10.50;53.80;;;;;;603245;236;26663;-67
2022/04/11 10:27:37;;;;;;;1743.13;157.37;;;10.50;53.70;;;;;;607778;236;26853;-66
2022/04/11 10:30:03;;;;;;;497.92;36.13;;;10.50;53.80;;;;;;602028;239;26601;-68
2022/04/11 10:32:30;;;;;;;120.53;18.00;;;10.50;53.20;;;;;;600897;238;26802;-69
2022/04/11 10:35:01;;;;;;;26.52;10.82;;;10.50;53.60;;;;;;604588;236;26578;-69
2022/04/11 10:37:28;;;;;;;34.10;12.13;;;10.40;53.50;;;;;;601763;239;27259;-69
2022/04/11 10:40:30;;;;;;;32.88;12.37;;;10.20;53.80;;;;;;601752;237;26600;-68
2022/04/11 10:43:16;;;;;;;30.88;12.18;;;10.20;53.20;;;;;;602368;235;26581;-66
2022/04/11 10:46:03;;;;;;;28.27;10.82;;;10.10;53.30;;;;;;609005;235;26815;-66
2022/04/11 10:48:41;;;;;;;25.20;9.35;;;10.10;53.10;;;;;;604218;237;26551;-67
2022/04/11 10:51:09;;;;;;;20.12;9.07;;;10.40;52.70;;;;;;605223;238;26560;-66
2022/04/11 10:53:36;;;;;;;18.75;7.18;;;10.70;52.10;;;;;;604462;234;26551;-66
2022/04/11 10:56:04;;;;;;;16.05;7.90;;;10.90;52.10;;;;;;604802;236;26852;-66
2022/04/11 10:58:45;;;;;;;12.75;4.28;;;11.10;51.20;;;;;;604937;237;26563;-67
2022/04/11 11:01:14;;;;;;;7.90;2.90;;;10.90;51.50;;;;;;604929;236;26544;-66
2022/04/11 11:03:41;;;;;;;8.85;2.70;;;10.60;51.70;;;;;;606786;236;26550;-66
2022/04/11 11:06:17;;;;;;;7.70;2.50;;;10.60;52.10;;;;;;604513;235;26855;-67
2022/04/11 11:08:44;;;;;;;5.25;2.15;;;10.60;51.90;;;;;;608061;236;26863;-67
2022/04/11 11:11:19;;;;;;;6.25;2.20;;;10.70;51.90;;;;;;602167;235;26631;-67
2022/04/11 11:13:45;;;;;;;5.75;2.15;;;11.00;51.90;;;;;;603299;237;26589;-67
2022/04/11 11:16:28;;;;;;;5.20;2.33;;;11.50;52.10;;;;;;602120;237;26870;-67
2022/04/11 11:19:12;;;;;;;10.70;2.40;;;11.30;51.70;;;;;;604227;238;26567;-67
2022/04/11 11:21:56;;;;;;;7.65;2.20;;;11.00;51.50;;;;;;606383;236;26668;-67
2022/04/11 11:24:24;;;;;;;6.75;2.00;;;11.10;51.80;;;;;;604673;234;26729;-67
2022/04/11 11:26:52;;;;;;;6.10;2.00;;;11.20;51.60;;;;;;601542;236;26990;-67
2022/04/11 11:29:22;;;;;;;9.15;2.10;;;11.20;50.70;;;;;;607014;235;26593;-67
2022/04/11 11:31:49;;;;;;;1.87;1.55;;;11.20;51.10;;;;;;607556;235;26549;-67
2022/04/11 11:34:18;;;;;;;6.47;1.90;;;11.20;51.00;;;;;;604692;235;26611;-67
2022/04/11 11:36:46;;;;;;;4.35;1.42;;;11.30;50.90;;;;;;611322;233;26674;-66
2022/04/11 11:39:17;;;;;;;3.45;1.33;;;11.10;50.50;;;;;;604618;235;26640;-65
2022/04/11 11:41:44;;;;;;;2.72;1.67;;;11.10;50.50;;;;;;605127;236;26608;-64
2022/04/11 11:44:12;;;;;;;6.57;1.85;;;11.00;51.10;;;;;;607410;235;26590;-67
2022/04/11 11:46:46;;;;;;;8.10;1.60;;;10.90;51.50;;;;;;604933;237;26841;-66
2022/04/11 11:49:14;;;;;;;4.18;1.58;;;10.80;52.20;;;;;;609317;235;26574;-66
2022/04/11 11:51:42;;;;;;;4.25;1.27;;;11.20;52.40;;;;;;604728;236;26565;-67
2022/04/11 11:54:09;;;;;;;4.62;1.23;;;11.20;52.30;;;;;;610199;236;26628;-67
2022/04/11 11:56:43;;;;;;;3.67;1.30;;;11.50;51.70;;;;;;609935;236;26678;-67
2022/04/11 11:59:10;;;;;;;5.00;1.10;;;11.70;51.50;;;;;;602387;236;26565;-68
2022/04/11 12:01:38;;;;;;;1.55;1.12;;;12.40;51.90;;;;;;603955;237;26596;-67
2022/04/11 12:06:38;;;;;;;4.00;1.50;;;12.30;52.50;;;;;;603818;237;26887;-67
2022/04/11 12:09:06;;;;;;;1.85;1.23;;;12.20;52.50;;;;;;604623;237;26593;-65
2022/04/11 12:11:34;;;;;;;7.22;1.55;;;12.30;53.50;;;;;;604547;237;26832;-66
2022/04/11 12:14:00;;;;;;;2.28;1.20;;;12.00;52.10;;;;;;607005;236;26635;-67
2022/04/11 12:16:29;;;;;;;2.20;1.27;;;12.10;52.50;;;;;;606119;235;26876;-66
2022/04/11 12:18:54;;;;;;;3.92;1.30;;;12.10;52.30;;;;;;604264;232;26569;-67
2022/04/11 12:21:31;;;;;;;2.42;1.37;;;12.30;51.60;;;;;;602282;236;26867;-67
2022/04/11 12:23:58;;;;;;;1.33;1.02;;;12.50;50.80;;;;;;602201;236;26662;-67
2022/04/11 12:26:26;;;;;;;4.40;1.50;;;12.80;50.20;;;;;;604917;235;26674;-67
2022/04/11 12:28:53;;;;;;;3.00;1.00;;;12.60;50.40;;;;;;606620;235;26916;-68
2022/04/11 12:31:22;;;;;;;2.42;0.98;;;12.60;51.00;;;;;;602204;237;26620;-66
2022/04/11 12:33:49;;;;;;;2.17;1.33;;;12.60;50.70;;;;;;604285;238;26923;-66
2022/04/11 12:36:16;;;;;;;1.35;1.00;;;12.20;51.00;;;;;;602576;238;26617;-67
2022/04/11 12:38:45;;;;;;;4.53;1.37;;;12.20;51.20;;;;;;601568;237;26918;-66
2022/04/11 12:41:24;;;;;;;2.60;1.08;;;12.20;49.80;;;;;;610386;235;26642;-67
2022/04/11 12:44:08;;;;;;;4.22;1.50;;;12.90;50.60;;;;;;604362;236;26606;-67
2022/04/11 12:46:37;;;;;;;6.75;1.60;;;12.90;50.60;;;;;;610263;234;26657;-66
2022/04/11 12:49:05;;;;;;;4.03;1.17;;;13.20;51.00;;;;;;605443;234;26624;-66
2022/04/11 12:51:32;;;;;;;1.87;1.30;;;12.70;50.90;;;;;;602962;237;26599;-66
2022/04/11 12:54:01;;;;;;;6.12;1.62;;;12.10;51.60;;;;;;607601;236;26693;-67
2022/04/11 12:56:34;;;;;;;2.83;1.80;;;12.00;52.20;;;;;;610034;235;26845;-67
2022/04/11 12:59:02;;;;;;;6.25;4.03;;;11.90;52.10;;;;;;603724;235;26591;-66
2022/04/11 13:01:42;;;;;;;5.65;2.17;;;12.40;52.80;;;;;;605654;235;26557;-67